Kezdőlap
METAR-TAF:

METAR-TAF

Repülőterek :

Wellington, Új-Zéland

földrajzi szélesség: 41-20S, földrajzi hosszúság: 174-48E, magasság: 12 m

Jelenlegi meteorológiai megfigyelések

A jelentés 37 perccel ezelõtt készült, 07:30 UTC
Északi szél 15 kt
Hőmérséklet 22°C
Páratartalom 78%
Légköri nyomás 1012 hPa
Látótávolság 10 km, vagy több

METAR: NZWN 230730Z AUTO 01015KT 9999 FEW019/// 22/18 Q1012 NOSIG

Idő: 21:07 (08:07 UTC)

Előrejelzés

A jelentés 3 órával és 6 perccel ezelõtt készült, 05:01 UTC
Az előrejelzés 23-én 06 óra UTC és 24-én 06 óra UTC között érvényes
Észak-északkeleti szél 15 kt
Látótávolság 10 km, vagy több
Kevés felhő 2000 lábon
23-én 08 óra UTC és 23-én 10 óra UTC között fokozatosan kialakuló
Észak-északkeleti szél 15 kt széllökések: 25 kt
23-én 11 óra UTC és 23-én 18 óra UTC között ideiglenes
Szakadozott felhőzet 1400 lábon

TAF: NZWN 230501Z 2306/2406 02015KT 9999 FEW020 BECMG 2308/2310 02015G25KT TEMPO 2311/2318 BKN014

Meteorológiai megfigyelések és előrejelzések több, mint 4000 repülőtéren (METAR és TAF jelentéseket).

A térképen piros és sárga pontok jelzik az elérhető meteorológiai állomásokat.

Mozgassa az egeret a pont fölött, hogy megjelenjen az állomás neve.

Azután kattintson az időjárási megfigyelések és előrejelzések megtekintéséhez.

A térkép megváltoztatása: kattintson a fekete keresztel jelölt zöld gombra ráközelítéshez, a vonallal jelölt zöld gombra távolításhoz, vagy a zöld nyilakra a szomszédos térképek eléréséhez.


METAR-TAF: